Flight Track Log - Related Links

Times and Time Zones

All times are in EDT time to prevent confusion due to time zone crossing. See the JZA8745 flight status page for this flight to view local times or setup timezone preferences in your user account.


Time Position Orientation Groundspeed Altitude Reporting Facility
EDT Latitude Longitude Course Direction KTS MPH feet Rate Location/Type
Thu 03:55:32 PM 47.5500 -65.9167 240° Southwest 130 150 3,800  Level Moncton Center
Thu 03:56:32 PM 47.5333 -65.9667 244° Southwest 150 173 5,100 1,250 Climbing Moncton Center
Thu 03:57:32 PM 47.5167 -66.0167 244° Southwest 150 173 6,300 1,350 Climbing Moncton Center
Thu 03:58:32 PM 47.5000 -66.0500 234° Southwest 150 173 7,800 1,400 Climbing Moncton Center
Thu 03:59:32 PM 47.4833 -66.1000 244° Southwest 140 161 9,100 1,050 Climbing Moncton Center
Thu 04:00:32 PM 47.4667 -66.1833 254° West 140 161 9,900 800 Climbing Moncton Center
Thu 04:01:00 PM 47.3734 -66.4226 240° Southwest  Level FlightAware Approximate
Thu 04:01:32 PM 47.4500 -66.2333 244° Southwest 160 184 10,700  Level Moncton Center
Thu 04:02:32 PM 47.4333 -66.2833 244° Southwest 160 184 11,400 800 Climbing Moncton Center
Thu 04:03:32 PM 47.4000 -66.3500 234° Southwest 170 196 12,300 800 Climbing Moncton Center
Thu 04:04:32 PM 47.3833 -66.4000 244° Southwest 170 196 13,000 700 Climbing Moncton Center
Thu 04:05:32 PM 47.3667 -66.4667 250° West 170 196 13,700 750 Climbing Moncton Center
Thu 04:06:32 PM 47.3333 -66.5500 239° Southwest 180 207 14,500 750 Climbing Moncton Center
Thu 04:07:32 PM 47.3167 -66.6000 244° Southwest 180 207 15,200 700 Climbing Moncton Center
Thu 04:08:32 PM 47.3000 -66.6667 250° West 180 207 15,900 650 Climbing Moncton Center
Thu 04:09:32 PM 47.2500 -66.7333 222° Southwest 180 207 16,500 550 Climbing Moncton Center
Thu 04:10:32 PM 47.2333 -66.7833 244° Southwest 180 207 17,000 600 Climbing Moncton Center
Thu 04:11:32 PM 47.2167 -66.8667 254° West 180 207 17,700 700 Climbing Moncton Center
Thu 04:12:32 PM 47.1833 -66.9333 234° Southwest 170 196 18,400 600 Climbing Moncton Center
Thu 04:13:32 PM 47.1667 -66.9833 244° Southwest 180 207 18,900 500 Climbing Moncton Center
Thu 04:14:32 PM 47.1500 -67.0500 250° West 170 196 19,400 450 Climbing Moncton Center
Thu 04:15:32 PM 47.1333 -67.1333 254° West 170 196 19,800 305 Climbing Moncton Center
Thu 04:16:30 PM 47.1153 -67.1792 240° Southwest 184 212 20,000 102 Climbing Boston Center
Thu 04:17:30 PM 47.0892 -67.2486 241° Southwest 194 223 20,000  Level Boston Center
Thu 04:18:30 PM 47.0611 -67.3214 241° Southwest 194 223 20,000  Level Boston Center
Thu 04:19:30 PM 47.0353 -67.3969 243° Southwest 207 238 20,000  Level Boston Center
Thu 04:20:30 PM 47.0072 -67.4725 241° Southwest 214 246 20,000  Level Boston Center
Thu 04:21:30 PM 46.9811 -67.5447 242° Southwest 207 238 20,000  Level Boston Center
Thu 04:22:30 PM 46.9528 -67.6172 240° Southwest 207 238 20,000  Level Boston Center
Thu 04:23:30 PM 46.9264 -67.6864 241° Southwest 215 247 20,000  Level Boston Center
Thu 04:24:30 PM 46.8981 -67.7589 240° Southwest 209 241 20,000  Level Boston Center
Thu 04:25:30 PM 46.8719 -67.8308 242° Southwest 209 241 20,000  Level Boston Center
Thu 04:26:30 PM 46.8475 -67.8997 243° Southwest 209 241 20,000  Level Boston Center
Thu 04:27:30 PM 46.8192 -67.9747 241° Southwest 209 241 20,000  Level Boston Center
Thu 04:28:30 PM 46.7864 -68.0500 238° Southwest 216 249 20,000  Level Boston Center
Thu 04:29:30 PM 46.7622 -68.1278 246° West 216 249 20,000  Level Boston Center
Thu 04:30:30 PM 46.7406 -68.2172 251° West 216 249 20,000  Level Boston Center
Thu 04:31:30 PM 46.7183 -68.2947 247° West 216 249 20,000  Level Boston Center
Thu 04:32:30 PM 46.6939 -68.3692 244° Southwest 216 249 20,000  Level Boston Center
Thu 04:33:30 PM 46.6694 -68.4464 245° Southwest 216 249 20,000  Level Boston Center
Thu 04:34:30 PM 46.6492 -68.5206 248° West 216 249 20,000  Level Boston Center
Thu 04:35:30 PM 46.6289 -68.6006 250° West 210 242 20,000  Level Boston Center
Thu 04:36:30 PM 46.6061 -68.6686 244° Southwest 210 242 20,000  Level Boston Center
Thu 04:37:30 PM 46.5833 -68.7425 246° West 204 235 20,000  Level Boston Center
Thu 04:38:30 PM 46.5608 -68.8164 246° West 204 235 20,000  Level Boston Center
Thu 04:39:30 PM 46.5381 -68.8903 246° West 204 235 20,000  Level Boston Center
Thu 04:40:30 PM 46.5153 -68.9672 247° West 204 235 20,000  Level Boston Center
Thu 04:41:30 PM 46.4925 -69.0439 247° West 204 235 20,000  Level Boston Center
Thu 04:42:30 PM 46.4697 -69.1206 247° West 206 237 20,000  Level Boston Center
Thu 04:43:30 PM 46.4486 -69.1822 244° Southwest 211 243 20,000  Level Boston Center
Thu 04:44:30 PM 46.4236 -69.2619 246° West 211 243 20,000  Level Boston Center
Thu 04:45:30 PM 46.4006 -69.3353 246° West 211 243 20,000  Level Boston Center
Thu 04:46:30 PM 46.3797 -69.4089 248° West 211 243 20,000  Level Boston Center
Thu 04:47:30 PM 46.3525 -69.4883 244° Southwest 211 243 20,000  Level Boston Center
Thu 04:48:42 PM 46.3256 -69.5800 247° West 211 243 20,000  Level Boston Center
Thu 04:49:42 PM 46.3003 -69.6533 244° Southwest 211 243 20,000  Level Boston Center
Thu 04:50:42 PM 46.2794 -69.7325 249° West 211 243 20,000  Level Boston Center
Thu 04:51:42 PM 46.2539 -69.8086 244° Southwest 211 243 20,000  Level Boston Center
Thu 04:52:42 PM 46.2286 -69.8847 244° Southwest 216 249 20,000  Level Boston Center
Thu 04:53:42 PM 46.2053 -69.9608 246° West 216 249 20,000  Level Boston Center
Thu 04:54:42 PM 46.1819 -70.0339 245° Southwest 216 249 20,000  Level Boston Center
Thu 04:55:42 PM 46.1583 -70.1128 247° West 216 249 20,000  Level Boston Center
Thu 04:56:42 PM 46.1350 -70.1886 246° West 216 249 20,000  Level Boston Center
Thu 04:57:32 PM 46.1000 -70.2667 237° Southwest 210 242 20,000  Level Moncton Center
Thu 04:58:32 PM 46.0667 -70.3333 234° Southwest 210 242 20,000  Level Moncton Center
Thu 04:59:32 PM 46.0500 -70.4333 257° West 210 242 20,000  Level Moncton Center
Thu 05:00:32 PM 46.0333 -70.5000 250° West 210 242 20,000  Level Moncton Center
Thu 05:01:32 PM 46.0000 -70.5667 234° Southwest 210 242 20,000  Level Moncton Center
Thu 05:02:32 PM 45.9833 -70.6333 250° West 210 242 20,000  Level Moncton Center
Thu 05:03:32 PM 45.9500 -70.7000 234° Southwest 210 242 20,000  Level Moncton Center
Thu 05:04:32 PM 45.9333 -70.8000 257° West 210 242 20,000  Level Moncton Center
Thu 05:05:32 PM 45.9000 -70.8667 234° Southwest 200 230 20,000  Level Moncton Center
Thu 05:06:32 PM 45.9000 -70.9333 270° West 210 242 20,000  Level Moncton Center
Thu 05:07:32 PM 45.9000 -71.0333 270° West 200 230 20,000  Level Moncton Center
Thu 05:08:32 PM 45.9000 -71.1167 270° West 210 242 20,000  Level Moncton Center
Thu 05:09:58 PM 45.8833 -71.2000 254° West 210 242 20,000  Level Montreal Center
Thu 05:10:58 PM 45.8667 -71.2667 250° West 210 242 20,000  Level Montreal Center
Thu 05:11:58 PM 45.8667 -71.3667 270° West 210 242 20,000  Level Montreal Center
Thu 05:12:58 PM 45.8667 -71.4333 270° West 200 230 20,000  Level Montreal Center
Thu 05:13:58 PM 45.8500 -71.5333 257° West 210 242 20,000  Level Montreal Center
Thu 05:14:58 PM 45.8333 -71.6167 254° West 210 242 20,000  Level Montreal Center
Thu 05:15:58 PM 45.8500 -71.6833 290° West 210 242 20,000  Level Montreal Center
Thu 05:16:58 PM 45.8333 -71.7833 257° West 210 242 20,000  Level Montreal Center
Thu 05:17:58 PM 45.8167 -71.8500 250° West 210 242 20,000  Level Montreal Center
Thu 05:18:58 PM 45.8167 -71.9333 270° West 210 242 20,000  Level Montreal Center
Thu 05:19:58 PM 45.8000 -72.0167 254° West 210 242 20,000  Level Montreal Center
Thu 05:20:58 PM 45.7833 -72.1000 254° West 210 242 20,000 -50 Level Montreal Center
Thu 05:21:58 PM 45.8000 -72.2000 283° West 210 242 19,900 -300 Descending Montreal Center
Thu 05:22:58 PM 45.7833 -72.2667 250° West 220 253 19,400 -600 Descending Montreal Center
Thu 05:23:58 PM 45.7667 -72.3667 257° West 230 265 18,700 -800 Descending Montreal Center
Thu 05:24:58 PM 45.7667 -72.4667 270° West 250 288 17,800 -1,000 Descending Montreal Center
Thu 05:25:58 PM 45.7500 -72.5500 254° West 250 288 16,700 -1,100 Descending Montreal Center
Thu 05:26:58 PM 45.7500 -72.6500 270° West 250 288 15,600 -1,150 Descending Montreal Center
Thu 05:27:58 PM 45.7333 -72.7500 257° West 250 288 14,400 -1,300 Descending Montreal Center
Thu 05:28:58 PM 45.7333 -72.8667 270° West 260 299 13,000 -1,400 Descending Montreal Center
Thu 05:29:58 PM 45.7167 -72.9667 257° West 260 299 11,600 -1,500 Descending Montreal Center
Thu 05:30:58 PM 45.7000 -73.0667 257° West 260 299 10,000 -1,400 Descending Montreal Center
Thu 05:31:58 PM 45.6833 -73.1667 257° West 240 276 8,800 -1,100 Descending Montreal Center
Thu 05:32:58 PM 45.6833 -73.2500 270° West 240 276 7,800 -1,100 Descending Montreal Center
Thu 05:33:58 PM 45.6667 -73.3500 257° West 240 276 6,600 -1,350 Descending Montreal Center
Thu 05:34:58 PM 45.6500 -73.4500 257° West 230 265 5,100 -1,350 Descending Montreal Center
Thu 05:35:58 PM 45.6167 -73.5167 234° Southwest 230 265 3,900 -1,250 Descending Montreal Center
Thu 05:36:58 PM 45.5667 -73.6000 229° Southwest 230 265 2,600 -1,300 Descending Montreal Center

Login

Don't have an account? Register now (free) for customized features, flight alerts, and more!